Time;durP1;ratioP1;P1;durP2;ratioP2;P2;SDS_P1;SDS_P2;PMS_P1;PMS_P2;Temp;Humidity;BMP_temperature;BMP_pressure;BME280_temperature;BME280_humidity;BME280_pressure;Samples;Min_cycle;Max_cycle;Signal;HPM_P1;HPM_P2
2022/09/06 00:00:13;;;;;;;0.50;0.50;;;;;;;7.07;83.33;99446.94;5114434;28;20441;-84
2022/09/06 00:02:42;;;;;;;0.60;0.60;;;;;;;7.07;83.17;99436.22;5113598;28;20371;-84
2022/09/06 00:05:10;;;;;;;0.60;0.60;;;;;;;7.07;83.16;99442.41;5114356;28;20044;-84
2022/09/06 00:07:38;;;;;;;0.57;0.57;;;;;;;7.10;83.36;99447.34;5114012;28;20048;-85
2022/09/06 00:10:05;;;;;;;0.60;0.60;;;;;;;7.14;82.98;99442.34;5113863;28;20051;-85
2022/09/06 00:12:32;;;;;;;0.60;0.60;;;;;;;7.15;82.97;99435.97;5112189;28;20040;-84
2022/09/06 00:14:59;;;;;;;0.60;0.60;;;;;;;7.16;83.11;99445.66;5113742;28;20505;-85
2022/09/06 00:17:27;;;;;;;0.60;0.60;;;;;;;7.20;83.08;99438.84;5113509;28;20058;-85
2022/09/06 00:19:54;;;;;;;0.60;0.60;;;;;;;7.22;82.75;99436.78;5113324;28;20598;-84
2022/09/06 00:22:21;;;;;;;0.60;0.60;;;;;;;7.18;82.65;99437.41;5113415;28;20097;-84
2022/09/06 00:24:48;;;;;;;0.50;0.50;;;;;;;7.14;82.78;99445.03;5113529;28;20087;-83
2022/09/06 00:27:15;;;;;;;0.50;0.50;;;;;;;7.10;82.83;99441.97;5113593;28;20055;-84
2022/09/06 00:29:42;;;;;;;0.50;0.50;;;;;;;7.07;83.19;99433.53;5112130;28;20047;-84
2022/09/06 00:32:09;;;;;;;0.60;0.60;;;;;;;7.00;83.28;99440.78;5113375;28;20093;-84
2022/09/06 00:34:36;;;;;;;0.50;0.50;;;;;;;6.91;83.44;99441.00;5111996;28;20047;-84
2022/09/06 00:37:04;;;;;;;0.60;0.60;;;;;;;6.78;83.67;99435.63;5113273;28;20044;-84
2022/09/06 00:39:31;;;;;;;0.60;0.60;;;;;;;6.71;84.02;99442.91;5112998;28;20047;-84
2022/09/06 00:41:58;;;;;;;0.40;0.40;;;;;;;6.62;84.41;99436.09;5111951;28;20059;-84
2022/09/06 00:44:25;;;;;;;0.60;0.60;;;;;;;6.53;84.68;99440.00;5112041;28;20051;-85
2022/09/06 00:46:53;;;;;;;0.60;0.60;;;;;;;6.48;84.74;99441.47;5113025;28;20422;-83
2022/09/06 00:49:27;;;;;;;0.50;0.50;;;;;;;6.52;85.24;99444.56;5095154;28;20043;-84
2022/09/06 00:51:58;;;;;;;0.60;0.60;;;;;;;6.58;85.12;99440.22;5111567;28;20043;-86
2022/09/06 00:54:25;;;;;;;0.50;0.50;;;;;;;6.64;85.28;99442.06;5112007;28;20062;-84
2022/09/06 00:56:53;;;;;;;0.57;0.57;;;;;;;6.72;84.71;99444.53;5112690;28;20071;-84
2022/09/06 00:59:21;;;;;;;0.52;0.52;;;;;;;6.78;84.71;99449.06;5111701;28;20051;-84
2022/09/06 01:01:48;;;;;;;0.60;0.60;;;;;;;6.81;84.49;99447.81;5094824;28;20093;-83
2022/09/06 01:04:15;;;;;;;0.60;0.60;;;;;;;6.80;84.27;99438.13;5112686;28;20047;-84
2022/09/06 01:06:51;;;;;;;0.55;0.55;;;;;;;6.80;84.23;99441.63;5112674;28;20082;-85
2022/09/06 01:09:37;;;;;;;0.50;0.50;;;;;;;6.84;84.16;99440.19;5111629;28;20058;-85
2022/09/06 01:12:21;;;;;;;0.50;0.50;;;;;;;6.86;84.06;99435.44;5110896;28;20048;-84
2022/09/06 01:15:32;;;;;;;0.50;0.50;;;;;;;6.93;83.80;99438.91;5112437;28;20051;-84
2022/09/06 01:18:11;;;;;;;0.60;0.60;;;;;;;6.96;83.95;99445.72;5076125;28;20552;-84
2022/09/06 01:21:04;;;;;;;0.60;0.60;;;;;;;7.00;83.62;99440.78;5112502;28;20059;-84
2022/09/06 01:24:01;;;;;;;0.60;0.60;;;;;;;6.86;83.60;99445.31;5111127;28;20460;-84
2022/09/06 01:27:05;;;;;;;0.60;0.60;;;;;;;6.74;84.13;99442.47;5086496;28;20059;-83
2022/09/06 01:29:47;;;;;;;0.50;0.50;;;;;;;6.57;84.03;99436.72;5112424;28;20055;-84
2022/09/06 01:32:36;;;;;;;0.60;0.60;;;;;;;6.48;84.46;99443.31;5111615;28;20612;-84
2022/09/06 01:35:09;;;;;;;0.60;0.60;;;;;;;6.40;84.81;99440.84;5112589;28;20482;-84
2022/09/06 01:37:36;;;;;;;0.50;0.50;;;;;;;6.35;84.83;99444.13;5112344;28;20065;-84
2022/09/06 01:40:04;;;;;;;0.50;0.50;;;;;;;6.40;84.71;99456.94;5111286;28;20052;-83
2022/09/06 01:42:32;;;;;;;0.60;0.60;;;;;;;6.41;84.61;99442.50;5112840;28;20115;-84
2022/09/06 01:45:07;;;;;;;0.60;0.60;;;;;;;6.42;84.79;99439.59;5127796;28;20402;-85
2022/09/06 01:47:52;;;;;;;0.60;0.60;;;;;;;6.43;84.98;99446.63;5111243;28;20056;-84
2022/09/06 01:50:41;;;;;;;0.50;0.50;;;;;;;6.49;84.75;99444.97;5112172;28;20050;-85
2022/09/06 01:53:35;;;;;;;0.57;0.57;;;;;;;6.53;84.66;99450.72;5112169;28;20059;-85
2022/09/06 01:56:23;;;;;;;0.60;0.60;;;;;;;6.58;84.45;99453.63;5112230;28;20047;-83
2022/09/06 01:59:21;;;;;;;0.60;0.60;;;;;;;6.54;84.25;99444.38;5112525;28;20039;-84
2022/09/06 02:01:47;;;;;;;0.50;0.50;;;;;;;6.41;84.12;99443.31;5111870;28;20093;-84
2022/09/06 02:04:27;;;;;;;0.60;0.60;;;;;;;6.35;84.54;99440.63;5111892;28;20478;-83
2022/09/06 02:07:07;;;;;;;0.57;0.57;;;;;;;6.33;84.70;99440.00;5110540;28;20475;-84
2022/09/06 02:09:37;;;;;;;0.60;0.60;;;;;;;6.36;84.50;99445.00;5111826;28;20054;-84
2022/09/06 02:12:04;;;;;;;0.60;0.60;;;;;;;6.42;84.34;99441.47;5093930;28;20568;-84
2022/09/06 02:15:30;;;;;;;0.60;0.60;;;;;;;6.53;83.96;99445.38;5110866;28;20051;-83
2022/09/06 02:18:05;;;;;;;0.60;0.60;;;;;;;6.51;83.87;99450.97;5048698;28;20076;-83
2022/09/06 02:20:34;;;;;;;;;;;;;;;6.49;83.86;99451.16;5034408;28;20076;-84
2022/09/06 02:23:03;;;;;;;0.60;0.60;;;;;;;6.53;83.67;99456.09;5035329;28;20031;-84
2022/09/06 02:25:34;;;;;;;0.60;0.60;;;;;;;6.50;83.42;99458.16;5037111;28;20083;-84
2022/09/06 02:28:01;;;;;;;0.50;0.50;;;;;;;6.50;83.62;99458.16;5036665;28;20041;-82
2022/09/06 02:30:29;;;;;;;0.55;0.55;;;;;;;6.50;83.54;99447.44;5052973;28;20059;-84
2022/09/06 02:32:59;;;;;;;0.60;0.60;;;;;;;6.54;83.70;99455.09;5052706;28;20049;-84
2022/09/06 02:35:26;;;;;;;0.60;0.60;;;;;;;6.52;83.77;99452.59;5036491;28;20056;-84
2022/09/06 02:37:55;;;;;;;0.60;0.60;;;;;;;6.42;83.52;99461.06;5052669;28;20059;-84
2022/09/06 02:40:22;;;;;;;0.60;0.60;;;;;;;6.28;83.58;99460.25;5019860;28;20091;-84
2022/09/06 02:42:49;;;;;;;0.60;0.60;;;;;;;6.18;83.92;99459.81;5052446;28;20091;-84
2022/09/06 02:45:16;;;;;;;0.57;0.57;;;;;;;6.13;84.03;99469.47;5052866;28;20503;-84
2022/09/06 02:47:43;;;;;;;0.60;0.60;;;;;;;6.04;84.07;99469.69;5065810;28;20459;-84
2022/09/06 02:50:12;;;;;;;0.60;0.60;;;;;;;6.02;84.36;99473.59;5114161;28;20044;-84
2022/09/06 02:52:39;;;;;;;0.60;0.60;;;;;;;6.01;84.53;99462.06;5115061;28;20047;-84
2022/09/06 02:55:06;;;;;;;0.60;0.60;;;;;;;6.07;84.36;99474.63;5115730;28;20139;-83
2022/09/06 02:57:34;;;;;;;0.70;0.70;;;;;;;6.14;84.26;99473.81;5115390;28;20528;-83
2022/09/06 03:00:03;;;;;;;0.60;0.60;;;;;;;6.18;83.75;99461.66;5115355;27;20265;-83
2022/09/06 03:02:30;;;;;;;0.60;0.60;;;;;;;6.18;83.54;99465.19;5096970;28;20058;-84
2022/09/06 03:04:57;;;;;;;0.60;0.60;;;;;;;6.21;83.59;99462.09;5114887;28;20066;-84
2022/09/06 03:07:24;;;;;;;0.70;0.70;;;;;;;6.24;83.37;99468.88;5115241;28;20040;-85
2022/09/06 03:09:51;;;;;;;0.60;0.60;;;;;;;6.25;83.06;99471.38;5113516;28;20079;-85
2022/09/06 03:12:18;;;;;;;0.60;0.60;;;;;;;6.27;82.78;99473.84;5114210;28;20138;-84
2022/09/06 03:14:45;;;;;;;0.70;0.70;;;;;;;6.25;82.92;99462.50;5114685;28;20097;-85
2022/09/06 03:17:12;;;;;;;0.60;0.60;;;;;;;6.27;82.86;99476.50;5115176;28;20079;-84
2022/09/06 03:19:39;;;;;;;0.70;0.70;;;;;;;6.33;82.89;99472.19;5114813;28;20131;-83
2022/09/06 03:22:06;;;;;;;0.50;0.50;;;;;;;6.41;82.52;99470.13;5113899;28;20059;-84
2022/09/06 03:24:33;;;;;;;0.60;0.60;;;;;;;6.51;82.68;99477.78;5114914;28;20051;-84
2022/09/06 03:27:00;;;;;;;0.60;0.60;;;;;;;6.51;82.15;99470.56;5114647;28;20070;-84
2022/09/06 03:29:27;;;;;;;0.60;0.60;;;;;;;6.55;82.09;99467.44;5096211;28;20051;-84
2022/09/06 03:31:54;;;;;;;0.57;0.57;;;;;;;6.57;81.76;99478.81;5127594;28;20048;-83
2022/09/06 03:34:28;;;;;;;0.60;0.60;;;;;;;6.51;81.16;99473.22;5117771;28;20050;-85
2022/09/06 03:36:58;;;;;;;0.50;0.50;;;;;;;6.53;81.13;99475.69;5096984;28;20043;-85
2022/09/06 03:39:25;;;;;;;0.65;0.65;;;;;;;6.52;80.77;99474.06;5114302;28;20048;-85
2022/09/06 03:41:52;;;;;;;0.60;0.60;;;;;;;6.60;80.64;99481.06;5114419;28;20096;-84
2022/09/06 03:44:19;;;;;;;0.60;0.60;;;;;;;6.65;80.52;99486.63;5114373;28;20077;-84
2022/09/06 03:46:51;;;;;;;0.60;0.60;;;;;;;6.66;80.42;99485.59;5092507;28;20139;-85
2022/09/06 03:49:19;;;;;;;0.60;0.60;;;;;;;6.66;80.12;99482.91;5109096;28;20047;-84
2022/09/06 03:51:46;;;;;;;0.60;0.60;;;;;;;6.63;80.30;99476.09;5113138;28;20044;-84
2022/09/06 03:54:12;;;;;;;0.60;0.60;;;;;;;6.62;80.28;99482.50;5114797;28;20052;-83
2022/09/06 03:56:40;;;;;;;0.60;0.60;;;;;;;6.67;80.32;99473.84;5114299;28;20139;-83
2022/09/06 03:59:08;;;;;;;0.60;0.60;;;;;;;6.68;80.26;99480.84;5114486;28;20062;-86
2022/09/06 04:01:35;;;;;;;0.60;0.60;;;;;;;6.71;80.44;99475.91;5112520;28;20067;-85
2022/09/06 04:04:02;;;;;;;0.50;0.50;;;;;;;6.76;80.30;99479.81;5113276;28;20104;-84
2022/09/06 04:06:29;;;;;;;0.60;0.60;;;;;;;6.76;80.11;99482.50;5113314;28;20051;-83
2022/09/06 04:08:59;;;;;;;0.60;0.60;;;;;;;6.83;80.49;99489.50;5101678;28;20063;-83
2022/09/06 04:11:27;;;;;;;0.57;0.57;;;;;;;6.91;80.62;99486.63;5107118;28;20459;-85
2022/09/06 04:13:54;;;;;;;0.60;0.60;;;;;;;6.91;80.32;99488.44;5093181;27;20044;-87
2022/09/06 04:16:21;;;;;;;0.60;0.60;;;;;;;6.72;80.75;99484.78;5104636;27;20056;-86
2022/09/06 04:18:48;;;;;;;0.60;0.60;;;;;;;6.71;81.00;99485.81;5104099;27;20048;-83
2022/09/06 04:21:15;;;;;;;0.60;0.60;;;;;;;6.65;80.45;99489.31;5096257;28;20138;-86
2022/09/06 04:23:42;;;;;;;0.52;0.52;;;;;;;6.66;80.62;99491.81;5093053;28;20052;-84
2022/09/06 04:26:09;;;;;;;0.60;0.60;;;;;;;6.67;80.50;99493.44;5106043;28;20509;-85
2022/09/06 04:28:37;;;;;;;0.60;0.60;;;;;;;6.71;80.44;99494.69;5113447;28;20100;-89
2022/09/06 04:31:04;;;;;;;0.60;0.60;;;;;;;6.69;80.29;99495.94;5110368;28;20068;-87
2022/09/06 04:33:34;;;;;;;0.60;0.60;;;;;;;6.70;80.02;99492.19;5110157;28;20058;-86
2022/09/06 04:36:07;;;;;;;0.70;0.70;;;;;;;6.71;79.95;99493.88;5104564;28;20138;-85
2022/09/06 04:38:39;;;;;;;0.60;0.60;;;;;;;6.76;79.72;99491.38;5106578;28;20119;-85
2022/09/06 04:41:09;;;;;;;0.70;0.70;;;;;;;6.76;79.69;99501.25;5108337;28;20056;-87
2022/09/06 04:43:36;;;;;;;0.68;0.68;;;;;;;6.76;79.67;99496.75;5111665;27;20146;-87
2022/09/06 04:46:29;;;;;;;0.60;0.60;;;;;;;6.84;79.29;99495.72;5097683;27;20094;-86
2022/09/06 04:48:57;;;;;;;0.70;0.70;;;;;;;6.91;79.49;99493.81;5115503;27;20047;-84
2022/09/06 04:51:25;;;;;;;0.60;0.60;;;;;;;7.06;79.40;99493.59;5106942;27;20731;-87
2022/09/06 04:53:52;;;;;;;0.70;0.70;;;;;;;7.12;78.76;99488.22;5098991;28;20051;-85
2022/09/06 04:56:24;;;;;;;0.68;0.68;;;;;;;7.21;78.91;99491.50;5095348;28;20531;-88
2022/09/06 04:58:53;;;;;;;0.60;0.60;;;;;;;7.30;78.39;99487.56;5098910;28;20056;-85
2022/09/06 05:01:20;;;;;;;0.57;0.57;;;;;;;7.21;77.47;99502.22;5090375;28;20513;-86
2022/09/06 05:03:48;;;;;;;0.60;0.60;;;;;;;7.12;77.47;99490.91;5076329;28;20055;-86
2022/09/06 05:06:20;;;;;;;0.70;0.70;;;;;;;7.31;77.62;99502.59;5086915;28;20545;-85
2022/09/06 05:08:53;;;;;;;0.60;0.60;;;;;;;7.25;77.53;99486.53;5076882;28;20074;-85
2022/09/06 05:11:21;;;;;;;0.50;0.50;;;;;;;7.37;77.88;99500.97;5089055;28;20044;-86
2022/09/06 05:13:49;;;;;;;0.50;0.50;;;;;;;7.55;77.51;99492.22;5098685;28;20044;-85
2022/09/06 05:16:16;;;;;;;0.60;0.60;;;;;;;7.54;76.92;99487.88;5098859;28;20082;-86
2022/09/06 05:18:44;;;;;;;0.70;0.70;;;;;;;7.57;76.80;99492.81;5093823;28;20050;-87
2022/09/06 05:21:12;;;;;;;0.60;0.60;;;;;;;7.47;75.85;99489.75;5105533;28;20426;-88
2022/09/06 05:23:39;;;;;;;0.60;0.60;;;;;;;7.48;75.93;99491.41;5102932;28;20074;-84
2022/09/06 05:26:06;;;;;;;0.70;0.70;;;;;;;7.61;75.92;99488.66;5102547;27;20040;-84
2022/09/06 05:28:35;;;;;;;0.70;0.70;;;;;;;7.90;75.12;99495.38;5086926;28;20080;-86
2022/09/06 05:31:06;;;;;;;0.70;0.70;;;;;;;8.21;74.39;99491.03;5108408;27;20043;-85
2022/09/06 05:33:33;;;;;;;0.60;0.60;;;;;;;8.79;72.93;99493.50;5112803;27;20108;-85
2022/09/06 05:36:03;;;;;;;0.65;0.65;;;;;;;8.89;71.08;99483.06;5128923;27;20598;-84
2022/09/06 05:38:30;;;;;;;0.70;0.70;;;;;;;8.49;71.73;99493.34;5128606;27;20070;-82
2022/09/06 05:40:57;;;;;;;0.60;0.60;;;;;;;8.29;72.51;99498.03;5128335;27;20051;-82
2022/09/06 05:43:24;;;;;;;0.60;0.60;;;;;;;8.01;73.35;99480.41;5098265;28;20040;-82
2022/09/06 05:45:52;;;;;;;0.60;0.60;;;;;;;7.92;73.67;99477.13;5094473;27;20051;-82
2022/09/06 05:48:20;;;;;;;0.60;0.60;;;;;;;8.02;73.90;99492.81;5070168;28;20391;-84
2022/09/06 05:50:47;;;;;;;0.50;0.50;;;;;;;7.90;74.32;99487.31;5095579;28;20051;-82
2022/09/06 05:53:14;;;;;;;0.60;0.60;;;;;;;7.89;74.73;99484.81;5110393;27;20065;-84
2022/09/06 05:55:41;;;;;;;0.60;0.60;;;;;;;7.94;74.28;99488.50;5100244;28;20214;-84
2022/09/06 05:58:09;;;;;;;0.70;0.70;;;;;;;7.92;74.02;99492.44;5110503;27;20054;-85
2022/09/06 06:00:36;;;;;;;0.60;0.60;;;;;;;8.01;74.01;99493.84;5100345;28;20130;-84
2022/09/06 06:03:03;;;;;;;0.60;0.60;;;;;;;8.02;72.87;99488.25;5100688;28;20395;-84
2022/09/06 06:05:31;;;;;;;0.60;0.60;;;;;;;7.77;72.52;99457.78;5097465;28;20105;-84
2022/09/06 06:07:59;;;;;;;0.60;0.60;;;;;;;7.76;72.55;99483.84;5082132;28;20071;-83
2022/09/06 06:10:30;;;;;;;0.60;0.60;;;;;;;7.84;71.78;99492.69;5073276;28;20089;-85
2022/09/06 06:13:03;;;;;;;0.60;0.60;;;;;;;7.70;70.86;99473.97;5090618;28;20051;-86
2022/09/06 06:15:31;;;;;;;0.60;0.60;;;;;;;7.91;71.06;99483.56;5099008;28;20043;-85
2022/09/06 06:18:09;;;;;;;0.60;0.60;;;;;;;7.92;71.16;99479.00;5092388;28;20657;-86
2022/09/06 06:20:36;;;;;;;0.60;0.60;;;;;;;8.20;71.14;99497.44;5093482;28;20052;-86
2022/09/06 06:23:03;;;;;;;0.60;0.60;;;;;;;8.03;70.38;99499.84;5099779;28;20051;-86
2022/09/06 06:25:30;;;;;;;0.60;0.60;;;;;;;7.72;70.78;99490.69;5090094;28;20524;-84
2022/09/06 06:27:58;;;;;;;0.50;0.50;;;;;;;7.53;70.75;99495.09;5090481;28;20474;-84
2022/09/06 06:30:25;;;;;;;0.60;0.60;;;;;;;7.46;71.57;99493.47;5099370;28;20044;-85
2022/09/06 06:32:53;;;;;;;0.60;0.60;;;;;;;7.49;71.16;99483.13;5061364;28;20562;-84
2022/09/06 06:35:20;;;;;;;0.60;0.60;;;;;;;7.61;71.12;99491.34;5091422;28;20044;-86
2022/09/06 06:37:47;;;;;;;0.60;0.60;;;;;;;7.80;70.63;99497.69;5073155;28;20093;-84
2022/09/06 06:40:15;;;;;;;0.60;0.60;;;;;;;7.88;70.01;99496.63;5092227;28;20056;-86
2022/09/06 06:42:45;;;;;;;0.60;0.60;;;;;;;7.91;70.06;99475.50;5089743;28;20529;-86
2022/09/06 06:45:14;;;;;;;0.50;0.50;;;;;;;8.32;69.23;99492.19;5110380;28;20055;-86
2022/09/06 06:47:41;;;;;;;0.70;0.70;;;;;;;8.50;68.94;99481.53;5113131;28;20054;-90
2022/09/06 06:50:09;;;;;;;0.60;0.60;;;;;;;8.62;66.88;99470.91;5112406;28;20043;-88
2022/09/06 06:52:36;;;;;;;0.60;0.60;;;;;;;8.79;66.80;99508.84;5128945;28;20047;-88
2022/09/06 06:55:04;;;;;;;0.60;0.60;;;;;;;8.76;65.92;99480.50;5128292;28;20134;-88
2022/09/06 06:57:47;;;;;;;0.70;0.70;;;;;;;8.76;66.07;99482.34;5132558;28;20073;-88
2022/09/06 07:00:14;;;;;;;0.60;0.60;;;;;;;8.71;65.64;99468.72;5132310;28;20039;-87
2022/09/06 07:02:41;;;;;;;0.70;0.70;;;;;;;9.13;65.76;99480.53;5134266;27;20154;-89
2022/09/06 07:05:09;;;;;;;0.70;0.70;;;;;;;9.58;64.70;99480.25;5132414;27;20077;-88
2022/09/06 07:07:58;;;;;;;0.70;0.70;;;;;;;9.76;63.55;99457.81;5132118;27;20051;-87
2022/09/06 07:10:26;;;;;;;0.70;0.70;;;;;;;9.98;62.15;99469.75;5137395;27;20043;-87
2022/09/06 07:13:01;;;;;;;0.60;0.60;;;;;;;9.74;62.25;99455.34;5147346;27;20072;-88
2022/09/06 07:15:33;;;;;;;0.60;0.60;;;;;;;9.57;62.99;99473.22;5139657;27;20047;-87
2022/09/06 07:18:01;;;;;;;0.57;0.57;;;;;;;9.06;64.08;99475.25;5144720;27;20111;-88
2022/09/06 07:20:43;;;;;;;0.60;0.60;;;;;;;8.82;64.87;99465.34;5123074;27;20084;-88
2022/09/06 07:23:36;;;;;;;0.60;0.60;;;;;;;8.65;65.23;99484.72;5135531;27;20051;-88
2022/09/06 07:26:25;;;;;;;0.60;0.60;;;;;;;8.50;65.60;99494.97;5136682;27;20122;-89
2022/09/06 07:28:58;;;;;;;0.60;0.60;;;;;;;8.43;65.08;99468.16;5135360;27;20055;-88
2022/09/06 07:31:28;;;;;;;0.60;0.60;;;;;;;8.50;64.91;99460.00;5137072;27;20043;-88
2022/09/06 07:34:16;;;;;;;0.70;0.70;;;;;;;8.79;64.25;99463.09;5138008;27;20047;-89
2022/09/06 07:36:44;;;;;;;0.60;0.60;;;;;;;9.13;63.57;99455.50;5120600;27;20047;-88
2022/09/06 07:39:11;;;;;;;0.80;0.80;;;;;;;9.65;62.75;99469.38;5135724;27;20047;-87
2022/09/06 07:41:38;;;;;;;0.70;0.70;;;;;;;10.04;62.38;99473.41;5135555;27;20043;-88
2022/09/06 07:44:05;;;;;;;0.60;0.60;;;;;;;10.18;61.12;99463.25;5102057;27;20473;-87
2022/09/06 07:46:35;;;;;;;0.70;0.70;;;;;;;10.06;61.23;99465.91;5121647;27;20047;-89
2022/09/06 07:49:05;;;;;;;0.70;0.70;;;;;;;10.14;60.76;99470.97;5119592;27;20043;-89
2022/09/06 07:51:32;;;;;;;0.70;0.70;;;;;;;10.01;61.31;99443.38;5135115;27;20429;-89
2022/09/06 07:54:00;;;;;;;0.70;0.70;;;;;;;10.29;60.10;99462.47;5136922;27;20050;-88
2022/09/06 07:56:47;;;;;;;0.60;0.60;;;;;;;10.31;60.53;99451.47;5117063;27;20100;-88
2022/09/06 07:59:14;;;;;;;0.60;0.60;;;;;;;10.49;60.22;99453.25;5117458;27;20043;-88
2022/09/06 08:01:41;;;;;;;0.60;0.60;;;;;;;10.46;60.03;99459.09;5133982;27;20092;-89
2022/09/06 08:04:13;;;;;;;0.60;0.60;;;;;;;10.32;60.93;99470.09;5137136;27;20107;-89
2022/09/06 08:06:43;;;;;;;0.60;0.60;;;;;;;10.33;60.10;99469.06;5133860;27;20046;-88
2022/09/06 08:09:31;;;;;;;0.60;0.60;;;;;;;10.38;58.72;99468.34;5135908;27;20419;-88
2022/09/06 08:12:05;;;;;;;0.60;0.60;;;;;;;10.25;59.00;99461.25;5116633;27;20138;-87
2022/09/06 08:14:35;;;;;;;0.52;0.52;;;;;;;10.09;59.58;99432.25;5134402;27;20043;-89
2022/09/06 08:17:48;;;;;;;0.50;0.50;;;;;;;10.19;59.21;99446.81;5134840;27;20047;-89
2022/09/06 08:20:35;;;;;;;0.55;0.55;;;;;;;10.35;59.60;99458.03;5135875;27;20578;-88
2022/09/06 08:23:12;;;;;;;0.60;0.60;;;;;;;10.55;59.09;99465.81;5133540;27;20072;-88
2022/09/06 08:25:40;;;;;;;0.60;0.60;;;;;;;10.78;58.30;99460.41;5135438;27;20199;-88
2022/09/06 08:28:08;;;;;;;0.68;0.68;;;;;;;10.83;57.65;99449.72;5099600;27;20046;-88
2022/09/06 08:30:35;;;;;;;0.60;0.60;;;;;;;10.72;57.95;99458.66;5135085;27;20039;-87
2022/09/06 08:33:07;;;;;;;0.60;0.60;;;;;;;10.30;59.35;99447.94;5135581;27;20066;-89
2022/09/06 08:35:35;;;;;;;0.60;0.60;;;;;;;9.86;60.25;99430.31;5101673;27;20095;-88
2022/09/06 08:38:05;;;;;;;0.60;0.60;;;;;;;9.93;62.04;99456.13;5136509;27;20485;-88
2022/09/06 08:40:46;;;;;;;0.50;0.50;;;;;;;9.94;61.64;99446.97;5122132;27;20043;-88
2022/09/06 08:43:19;;;;;;;0.60;0.60;;;;;;;9.92;62.33;99424.81;5094032;27;20077;-88
2022/09/06 08:46:06;;;;;;;0.70;0.70;;;;;;;10.47;58.89;99422.97;5132127;27;20047;-88
2022/09/06 08:48:38;;;;;;;0.80;0.80;;;;;;;11.27;57.99;99443.94;5126907;27;20043;-88
2022/09/06 08:51:35;;;;;;;0.40;0.40;;;;;;;11.46;58.31;99429.19;5105555;27;20107;-90
2022/09/06 08:54:10;;;;;;;0.50;0.50;;;;;;;10.53;58.89;99428.28;5125980;27;20081;-88
2022/09/06 08:56:45;;;;;;;0.50;0.50;;;;;;;9.71;61.86;99438.81;5101672;27;20047;-87
2022/09/06 08:59:16;;;;;;;0.60;0.60;;;;;;;9.49;63.34;99433.91;5135821;27;20058;-87
2022/09/06 09:02:08;;;;;;;0.90;0.90;;;;;;;10.80;61.11;99431.31;5140849;27;20031;-87
2022/09/06 09:04:41;;;;;;;0.70;0.70;;;;;;;11.99;56.86;99421.84;5145718;27;20054;-89
2022/09/06 09:07:25;;;;;;;0.90;0.90;;;;;;;12.61;55.62;99434.50;5135499;27;20043;-87
2022/09/06 09:09:56;;;;;;;0.80;0.80;;;;;;;12.76;54.92;99431.19;5133957;27;20112;-89
2022/09/06 09:12:24;;;;;;;0.60;0.60;;;;;;;12.68;55.80;99432.44;5133734;27;20055;-87
2022/09/06 09:14:56;;;;;;;0.60;0.60;;;;;;;12.02;55.19;99434.88;5116943;27;20134;-88
2022/09/06 09:17:28;;;;;;;0.50;0.50;;;;;;;11.13;56.95;99442.56;5124991;27;20051;-85
2022/09/06 09:19:55;;;;;;;0.50;0.50;;;;;;;10.46;58.98;99429.41;5109776;27;20039;-86
2022/09/06 09:22:24;;;;;;;0.50;0.50;;;;;;;10.19;62.33;99435.22;5122818;27;20461;-87
2022/09/06 09:24:52;;;;;;;0.50;0.50;;;;;;;10.17;63.14;99446.22;5097998;28;20086;-91
2022/09/06 09:27:25;;;;;;;0.60;0.60;;;;;;;10.29;63.35;99454.38;4749296;27;10000352;-90
2022/09/06 09:30:05;;;;;;;0.60;0.60;;;;;;;10.26;63.38;99437.81;5073169;28;20130;-92
2022/09/06 09:32:52;;;;;;;0.70;0.70;;;;;;;10.68;62.91;99438.56;5083828;28;20047;-86
2022/09/06 09:35:36;;;;;;;0.80;0.80;;;;;;;12.64;58.48;99430.47;5093588;28;20592;-87
2022/09/06 09:38:08;;;;;;;0.90;0.90;;;;;;;13.41;55.17;99425.03;5058031;28;20087;-91
2022/09/06 09:40:57;;;;;;;0.70;0.70;;;;;;;13.30;54.83;99415.16;5058197;28;20139;-90
2022/09/06 09:43:40;;;;;;;1.00;1.00;;;;;;;14.84;51.45;99427.50;5075485;28;20052;-89
2022/09/06 09:46:21;;;;;;;0.60;0.60;;;;;;;15.36;50.40;99421.22;5096024;28;20063;-90
2022/09/06 09:49:01;;;;;;;0.60;0.60;;;;;;;14.32;50.91;99404.53;5050870;28;20522;-88
2022/09/06 09:51:45;;;;;;;0.70;0.70;;;;;;;14.12;51.16;99416.03;5080845;28;20091;-88
2022/09/06 09:54:14;;;;;;;0.50;0.50;;;;;;;13.59;52.97;99426.59;5089159;28;20074;-89
2022/09/06 09:56:52;;;;;;;0.50;0.50;;;;;;;12.84;53.76;99419.09;5088811;28;20627;-89
2022/09/06 09:59:43;;;;;;;0.50;0.50;;;;;;;11.80;55.75;99413.09;5060678;28;20039;-92
2022/09/06 10:02:26;;;;;;;0.50;0.50;;;;;;;11.32;57.60;99416.19;5084892;28;20050;-90
2022/09/06 10:05:13;;;;;;;0.50;0.50;;;;;;;10.90;59.09;99425.31;5124835;28;20066;-89
2022/09/06 10:07:49;;;;;;;0.60;0.60;;;;;;;10.88;60.21;99426.59;5110811;28;20060;-86
2022/09/06 10:10:21;;;;;;;0.50;0.50;;;;;;;11.26;59.85;99426.88;5110024;28;20394;-86
2022/09/06 10:13:20;;;;;;;0.60;0.60;;;;;;;11.78;59.06;99417.91;5107947;28;20044;-87
2022/09/06 10:15:49;;;;;;;0.70;0.70;;;;;;;12.03;57.02;99406.75;5111120;28;20052;-87
2022/09/06 10:18:19;;;;;;;0.60;0.60;;;;;;;12.65;56.00;99421.28;5103482;28;20048;-86
2022/09/06 10:20:53;;;;;;;0.60;0.60;;;;;;;12.64;55.45;99419.66;5105010;28;20051;-85
2022/09/06 10:23:20;;;;;;;0.40;0.40;;;;;;;12.29;56.04;99418.00;5086614;28;20127;-86
2022/09/06 10:26:12;;;;;;;0.50;0.50;;;;;;;11.36;58.37;99420.06;5087331;28;20051;-86
2022/09/06 10:28:44;;;;;;;0.50;0.50;;;;;;;10.95;60.50;99424.59;5073916;28;20103;-86
2022/09/06 10:31:23;;;;;;;0.50;0.50;;;;;;;10.57;61.73;99420.50;5109257;28;20047;-84
2022/09/06 10:33:53;;;;;;;0.60;0.60;;;;;;;10.37;61.92;99421.66;5107966;28;20135;-84
2022/09/06 10:36:29;;;;;;;0.60;0.60;;;;;;;10.19;63.24;99421.72;5111684;28;20142;-85
2022/09/06 10:39:32;;;;;;;0.60;0.60;;;;;;;10.23;62.94;99422.06;5116383;28;20529;-84
2022/09/06 10:42:09;;;;;;;0.60;0.60;;;;;;;10.43;63.49;99429.88;5103875;28;20067;-85
2022/09/06 10:44:49;;;;;;;0.60;0.60;;;;;;;10.47;63.26;99428.38;5104568;27;20074;-86
2022/09/06 10:47:17;;;;;;;0.80;0.80;;;;;;;11.18;61.58;99416.47;5111311;27;20058;-86
2022/09/06 10:49:48;;;;;;;0.80;0.80;;;;;;;12.18;59.26;99417.03;5133027;27;20564;-88
2022/09/06 10:52:26;;;;;;;0.60;0.60;;;;;;;12.80;56.98;99416.09;5091918;28;20077;-84
2022/09/06 10:54:56;;;;;;;0.60;0.60;;;;;;;12.46;56.64;99407.19;5109896;27;20281;-84
2022/09/06 10:57:30;;;;;;;0.70;0.70;;;;;;;12.28;57.39;99390.13;5071867;28;20090;-86
2022/09/06 11:00:17;;;;;;;0.70;0.70;;;;;;;13.27;54.79;99385.84;5101681;28;20073;-82
2022/09/06 11:03:02;;;;;;;0.70;0.70;;;;;;;13.35;54.68;99412.50;5103631;28;20097;-86
2022/09/06 11:05:52;;;;;;;0.60;0.60;;;;;;;13.25;53.96;99406.94;5103246;28;20059;-84
2022/09/06 11:08:24;;;;;;;0.60;0.60;;;;;;;13.35;53.62;99406.28;5081549;28;20040;-86
2022/09/06 11:11:25;;;;;;;0.60;0.60;;;;;;;12.48;54.33;99407.75;5101870;28;20454;-85
2022/09/06 11:13:57;;;;;;;0.50;0.50;;;;;;;11.73;56.28;99400.78;5081865;28;20143;-85
2022/09/06 11:16:38;;;;;;;0.57;0.57;;;;;;;11.68;57.35;99415.84;5081357;27;20510;-85
2022/09/06 11:19:16;;;;;;;0.60;0.60;;;;;;;11.54;57.31;99384.75;5103019;28;20048;-84
2022/09/06 11:22:18;;;;;;;0.52;0.52;;;;;;;11.57;57.01;99413.16;5095962;28;20449;-85
2022/09/06 11:24:51;;;;;;;0.60;0.60;;;;;;;11.70;56.60;99405.59;5086515;28;21028;-84
2022/09/06 11:27:34;;;;;;;0.60;0.60;;;;;;;12.32;54.75;99410.22;5102331;28;20100;-84
2022/09/06 11:30:04;;;;;;;0.60;0.60;;;;;;;12.91;53.71;99404.34;5096263;28;20048;-83
2022/09/06 11:32:49;;;;;;;0.60;0.60;;;;;;;13.05;52.79;99403.97;5085183;28;20063;-86
2022/09/06 11:35:30;;;;;;;0.63;0.63;;;;;;;12.94;52.93;99400.31;5094242;28;20055;-86
2022/09/06 11:38:14;;;;;;;0.60;0.60;;;;;;;13.38;52.19;99400.34;5102192;27;20603;-85
2022/09/06 11:40:44;;;;;;;0.50;0.50;;;;;;;12.94;53.24;99403.84;5103220;27;20052;-85
2022/09/06 11:43:15;;;;;;;0.47;0.47;;;;;;;12.57;53.91;99408.97;5104129;28;20144;-84
2022/09/06 11:45:49;;;;;;;0.50;0.50;;;;;;;11.94;55.64;99402.81;5103765;28;20096;-85
2022/09/06 11:48:22;;;;;;;0.50;0.50;;;;;;;11.49;56.94;99407.09;5107827;28;20047;-85
2022/09/06 11:50:52;;;;;;;0.50;0.50;;;;;;;11.34;57.52;99403.25;5097861;28;20151;-85
2022/09/06 11:53:20;;;;;;;0.50;0.50;;;;;;;11.38;57.34;99407.13;5111867;27;20184;-85
2022/09/06 11:56:14;;;;;;;0.50;0.50;;;;;;;11.39;57.36;99406.06;5114862;28;20044;-86
2022/09/06 11:58:44;;;;;;;0.50;0.50;;;;;;;11.27;57.68;99392.63;5103702;28;20052;-85
2022/09/06 12:01:11;;;;;;;0.50;0.50;;;;;;;11.36;57.87;99399.25;5099183;28;20040;-84
2022/09/06 12:03:47;;;;;;;0.50;0.50;;;;;;;11.46;57.61;99387.84;5110767;28;20044;-87
2022/09/06 12:06:36;;;;;;;0.60;0.60;;;;;;;11.31;58.04;99382.13;5098355;28;20054;-85